Time;durP1;ratioP1;P1;durP2;ratioP2;P2;SDS_P1;SDS_P2;PMS_P1;PMS_P2;Temp;Humidity;BMP_temperature;BMP_pressure;BME280_temperature;BME280_humidity;BME280_pressure;Samples;Min_cycle;Max_cycle;Signal;HPM_P1;HPM_P2
2023/07/23 00:02:54;;;;;;;12.00;8.27;;;;;;;;;;6318807;28;20331;-73
2023/07/23 00:05:56;;;;;;;14.65;8.75;;;;;;;;;;6320693;28;20058;-73
2023/07/23 00:08:57;;;;;;;12.70;8.50;;;;;;;;;;6319262;28;20372;-72
2023/07/23 00:11:59;;;;;;;11.63;8.05;;;;;;;;;;6319297;28;20059;-74
2023/07/23 00:15:01;;;;;;;26.45;9.75;;;;;;;;;;6320467;28;20047;-71
2023/07/23 00:18:03;;;;;;;27.52;15.32;;;;;;;;;;6320098;28;20229;-71
2023/07/23 00:21:05;;;;;;;12.55;8.50;;;;;;;;;;6323387;28;20043;-71
2023/07/23 00:24:07;;;;;;;505.02;462.55;;;;;;;;;;6321215;28;20335;-71
2023/07/23 00:27:10;;;;;;;13.90;9.25;;;;;;;;;;6324364;28;20053;-71
2023/07/23 00:30:12;;;;;;;10.73;8.82;;;;;;;;;;6321239;28;20048;-72
2023/07/23 00:33:14;;;;;;;12.82;8.88;;;;;;;;;;6323803;28;20096;-72
2023/07/23 00:36:15;;;;;;;12.63;8.25;;;;;;;;;;6320708;28;20055;-72
2023/07/23 00:39:17;;;;;;;11.63;8.45;;;;;;;;;;6320752;28;20048;-72
2023/07/23 00:42:18;;;;;;;14.27;9.55;;;;;;;;;;6320799;28;20187;-72
2023/07/23 00:45:24;;;;;;;15.63;9.48;;;;;;;;;;6320802;28;20059;-72
2023/07/23 00:48:25;;;;;;;13.70;9.10;;;;;;;;;;6322077;28;20052;-73
2023/07/23 00:51:27;;;;;;;13.18;8.90;;;;;;;;;;6323190;28;20067;-74
2023/07/23 00:54:28;;;;;;;12.75;8.98;;;;;;;;;;6314831;28;20422;-72
2023/07/23 00:57:30;;;;;;;13.98;8.48;;;;;;;;;;6317379;28;20139;-71
2023/07/23 01:00:32;;;;;;;15.32;9.40;;;;;;;;;;6321363;28;20610;-74
2023/07/23 01:03:34;;;;;;;14.80;8.68;;;;;;;;;;6318968;28;20056;-74
2023/07/23 01:06:37;;;;;;;15.82;9.40;;;;;;;;;;6324605;28;20075;-73
2023/07/23 01:09:39;;;;;;;12.70;8.73;;;;;;;;;;6322576;28;20061;-74
2023/07/23 01:12:41;;;;;;;10.57;7.72;;;;;;;;;;6320506;28;20040;-73
2023/07/23 01:15:44;;;;;;;13.07;8.90;;;;;;;;;;6320732;28;20067;-74
2023/07/23 01:18:46;;;;;;;12.95;8.13;;;;;;;;;;6322213;28;20369;-73
2023/07/23 01:21:47;;;;;;;11.27;8.38;;;;;;;;;;6320767;28;20040;-73
2023/07/23 01:24:50;;;;;;;11.57;7.90;;;;;;;;;;6317830;28;20052;-73
2023/07/23 01:27:52;;;;;;;10.82;8.30;;;;;;;;;;6325338;28;20044;-73
2023/07/23 01:30:55;;;;;;;14.15;9.15;;;;;;;;;;6319586;28;20071;-73
2023/07/23 01:33:56;;;;;;;10.57;7.47;;;;;;;;;;6325475;28;20398;-73
2023/07/23 01:36:58;;;;;;;15.70;8.63;;;;;;;;;;6323045;28;20059;-73
2023/07/23 01:40:01;;;;;;;12.27;7.43;;;;;;;;;;6314494;28;20059;-72
2023/07/23 01:43:03;;;;;;;10.98;7.70;;;;;;;;;;6326560;27;20162;-72
2023/07/23 01:46:04;;;;;;;13.63;8.23;;;;;;;;;;6317689;28;20056;-74
2023/07/23 01:49:06;;;;;;;38.60;24.75;;;;;;;;;;6318124;28;20107;-73
2023/07/23 01:52:07;;;;;;;139.95;82.70;;;;;;;;;;6325178;27;20039;-72
2023/07/23 01:55:10;;;;;;;74.45;42.63;;;;;;;;;;6327143;28;20055;-71
2023/07/23 01:58:12;;;;;;;55.00;30.38;;;;;;;;;;6325520;28;20447;-72
2023/07/23 02:01:13;;;;;;;50.65;31.33;;;;;;;;;;6325388;27;20074;-72
2023/07/23 02:04:15;;;;;;;20.42;14.15;;;;;;;;;;6327642;28;20058;-72
2023/07/23 02:07:17;;;;;;;19.48;12.38;;;;;;;;;;6322905;28;20249;-73
2023/07/23 02:10:21;;;;;;;12.50;8.38;;;;;;;;;;6323507;28;20058;-74
2023/07/23 02:13:22;;;;;;;10.63;7.13;;;;;;;;;;6322413;28;20048;-74
2023/07/23 02:16:23;;;;;;;13.18;7.95;;;;;;;;;;6322985;28;20052;-75
2023/07/23 02:19:25;;;;;;;10.73;6.90;;;;;;;;;;6324357;28;20052;-75
2023/07/23 02:22:26;;;;;;;10.68;8.05;;;;;;;;;;6323775;28;20248;-75
2023/07/23 02:25:29;;;;;;;12.02;8.13;;;;;;;;;;6323859;28;20071;-74
2023/07/23 02:28:30;;;;;;;12.82;7.25;;;;;;;;;;6322370;28;20256;-74
2023/07/23 02:31:32;;;;;;;12.90;7.95;;;;;;;;;;6325223;28;20043;-72
2023/07/23 02:34:34;;;;;;;11.77;8.32;;;;;;;;;;6322567;28;20968;-72
2023/07/23 02:37:35;;;;;;;11.32;8.77;;;;;;;;;;6317875;28;20056;-72
2023/07/23 02:40:38;;;;;;;12.18;8.13;;;;;;;;;;6320175;28;20053;-72
2023/07/23 02:43:40;;;;;;;11.68;8.05;;;;;;;;;;6322025;28;20355;-73
2023/07/23 02:46:41;;;;;;;12.35;7.78;;;;;;;;;;6321062;28;20048;-73
2023/07/23 02:49:42;;;;;;;10.15;7.53;;;;;;;;;;6319914;28;20058;-72
2023/07/23 02:52:44;;;;;;;14.07;8.32;;;;;;;;;;6322995;28;20048;-72
2023/07/23 02:55:47;;;;;;;11.90;7.70;;;;;;;;;;6323160;28;20044;-71
2023/07/23 02:58:48;;;;;;;11.88;8.02;;;;;;;;;;6319463;28;21788;-71
2023/07/23 03:01:50;;;;;;;13.40;8.23;;;;;;;;;;6324141;28;20044;-72
2023/07/23 03:04:51;;;;;;;11.60;8.02;;;;;;;;;;6321026;28;20093;-72
2023/07/23 03:07:53;;;;;;;11.90;8.05;;;;;;;;;;6320895;28;20361;-72
2023/07/23 03:10:55;;;;;;;12.40;7.90;;;;;;;;;;6321797;28;20056;-72
2023/07/23 03:13:57;;;;;;;11.05;7.50;;;;;;;;;;6320956;28;20328;-73
2023/07/23 03:16:58;;;;;;;12.38;7.35;;;;;;;;;;6321432;28;20039;-72
2023/07/23 03:20:00;;;;;;;11.73;7.47;;;;;;;;;;6324107;28;20063;-72
2023/07/23 03:23:01;;;;;;;12.40;7.47;;;;;;;;;;6319767;28;20052;-72
2023/07/23 03:26:04;;;;;;;11.95;7.05;;;;;;;;;;6323087;28;20051;-70
2023/07/23 03:29:05;;;;;;;10.85;7.35;;;;;;;;;;6317695;28;20324;-72
2023/07/23 03:32:07;;;;;;;10.57;7.20;;;;;;;;;;6325828;28;20056;-71
2023/07/23 03:35:09;;;;;;;10.23;6.88;;;;;;;;;;6323736;28;20060;-71
2023/07/23 03:38:10;;;;;;;11.95;7.55;;;;;;;;;;6316154;28;20236;-71
2023/07/23 03:41:13;;;;;;;10.73;7.57;;;;;;;;;;6324064;28;20058;-71
2023/07/23 03:44:15;;;;;;;9.35;7.38;;;;;;;;;;6317734;28;20127;-71
2023/07/23 03:47:17;;;;;;;11.77;7.97;;;;;;;;;;6319113;28;20060;-71
2023/07/23 03:50:18;;;;;;;11.13;8.32;;;;;;;;;;6321774;28;20056;-70
2023/07/23 03:53:20;;;;;;;12.55;8.27;;;;;;;;;;6319105;28;20055;-70
2023/07/23 03:56:23;;;;;;;12.50;8.27;;;;;;;;;;6320319;28;20545;-72
2023/07/23 03:59:27;;;;;;;12.75;8.73;;;;;;;;;;6319096;28;20059;-71
2023/07/23 04:02:28;;;;;;;15.27;8.23;;;;;;;;;;6318745;28;21646;-71
2023/07/23 04:05:30;;;;;;;11.38;8.27;;;;;;;;;;6320337;28;20109;-72
2023/07/23 04:08:31;;;;;;;11.23;8.80;;;;;;;;;;6320403;28;20048;-71
2023/07/23 04:11:34;;;;;;;14.70;9.60;;;;;;;;;;6318331;28;20048;-71
2023/07/23 04:14:42;;;;;;;17.52;9.93;;;;;;;;;;6322293;28;20089;-72
2023/07/23 04:17:44;;;;;;;14.27;8.90;;;;;;;;;;6324188;28;20255;-73
2023/07/23 04:20:45;;;;;;;14.43;10.60;;;;;;;;;;6322734;28;20060;-70
2023/07/23 04:23:47;;;;;;;14.77;9.57;;;;;;;;;;6319265;28;20155;-72
2023/07/23 04:26:50;;;;;;;16.35;10.52;;;;;;;;;;6316678;28;20052;-72
2023/07/23 04:29:51;;;;;;;16.35;10.07;;;;;;;;;;6322390;28;20112;-72
2023/07/23 04:32:53;;;;;;;15.32;11.55;;;;;;;;;;6320910;28;20052;-72
2023/07/23 04:35:54;;;;;;;15.95;11.77;;;;;;;;;;6320286;28;20062;-71
2023/07/23 04:38:56;;;;;;;15.85;11.43;;;;;;;;;;6323993;28;20220;-72
2023/07/23 04:41:58;;;;;;;18.15;12.75;;;;;;;;;;6323782;27;20059;-72
2023/07/23 04:45:00;;;;;;;16.30;12.45;;;;;;;;;;6319388;28;20063;-72
2023/07/23 04:48:01;;;;;;;16.23;11.75;;;;;;;;;;6320325;28;20537;-72
2023/07/23 04:51:04;;;;;;;18.27;12.75;;;;;;;;;;6323318;28;20123;-72
2023/07/23 04:54:05;;;;;;;20.00;12.80;;;;;;;;;;6315460;28;20052;-72
2023/07/23 04:57:08;;;;;;;21.15;12.13;;;;;;;;;;6320893;28;20055;-73
2023/07/23 05:00:10;;;;;;;18.65;12.45;;;;;;;;;;6319132;28;20060;-72
2023/07/23 05:03:11;;;;;;;18.98;13.57;;;;;;;;;;6319969;28;20267;-72
2023/07/23 05:06:13;;;;;;;17.35;12.43;;;;;;;;;;6319724;28;20043;-72
2023/07/23 05:09:14;;;;;;;19.05;12.40;;;;;;;;;;6316687;28;20335;-72
2023/07/23 05:12:17;;;;;;;18.27;12.63;;;;;;;;;;6320041;28;20071;-71
2023/07/23 05:15:18;;;;;;;20.23;12.85;;;;;;;;;;6316936;28;20059;-72
2023/07/23 05:18:20;;;;;;;18.45;12.50;;;;;;;;;;6319852;27;20362;-72
2023/07/23 05:21:22;;;;;;;19.52;12.63;;;;;;;;;;6318035;28;20112;-72
2023/07/23 05:24:23;;;;;;;21.70;12.30;;;;;;;;;;6318573;28;20305;-72
2023/07/23 05:27:26;;;;;;;18.92;12.18;;;;;;;;;;6320363;28;20052;-72
2023/07/23 05:30:28;;;;;;;17.63;12.95;;;;;;;;;;6318717;27;20071;-72
2023/07/23 05:33:30;;;;;;;19.83;12.50;;;;;;;;;;6317737;28;20059;-72
2023/07/23 05:36:31;;;;;;;18.92;12.90;;;;;;;;;;6321946;28;20059;-72
2023/07/23 05:39:33;;;;;;;19.38;13.27;;;;;;;;;;6322738;28;20056;-72
2023/07/23 05:42:36;;;;;;;19.08;12.73;;;;;;;;;;6320132;28;20468;-71
2023/07/23 05:45:37;;;;;;;19.55;12.80;;;;;;;;;;6325418;28;20044;-71
2023/07/23 05:48:39;;;;;;;23.67;13.23;;;;;;;;;;6324354;28;20052;-71
2023/07/23 05:51:40;;;;;;;21.00;13.32;;;;;;;;;;6323580;28;20056;-72
2023/07/23 05:54:41;;;;;;;18.50;13.15;;;;;;;;;;6319867;28;20133;-71
2023/07/23 05:57:44;;;;;;;20.10;13.32;;;;;;;;;;6327709;28;20077;-73
2023/07/23 06:00:46;;;;;;;21.08;13.10;;;;;;;;;;6324881;28;20282;-73
2023/07/23 06:03:47;;;;;;;20.33;12.73;;;;;;;;;;6319478;28;20064;-73
2023/07/23 06:06:50;;;;;;;18.20;13.15;;;;;;;;;;6322332;28;20060;-73
2023/07/23 06:09:52;;;;;;;17.63;12.95;;;;;;;;;;6322257;28;20072;-71
2023/07/23 06:12:54;;;;;;;17.92;12.48;;;;;;;;;;6322597;28;20065;-73
2023/07/23 06:15:56;;;;;;;16.27;11.32;;;;;;;;;;6317702;28;20060;-73
2023/07/23 06:18:57;;;;;;;17.50;11.50;;;;;;;;;;6322443;28;20052;-73
2023/07/23 06:21:59;;;;;;;15.05;11.57;;;;;;;;;;6318621;28;20255;-73
2023/07/23 06:25:00;;;;;;;19.45;11.98;;;;;;;;;;6317615;28;21351;-73
2023/07/23 06:28:03;;;;;;;17.08;11.52;;;;;;;;;;6318164;28;20067;-72
2023/07/23 06:31:04;;;;;;;16.88;11.43;;;;;;;;;;6319497;28;20063;-72
2023/07/23 06:34:06;;;;;;;20.17;11.70;;;;;;;;;;6315371;28;20062;-72
2023/07/23 06:37:07;;;;;;;18.88;11.57;;;;;;;;;;6324903;28;20040;-73
2023/07/23 06:40:09;;;;;;;18.40;11.50;;;;;;;;;;6318674;28;20070;-73
2023/07/23 06:43:12;;;;;;;17.35;11.52;;;;;;;;;;6324210;28;20052;-73
2023/07/23 06:46:17;;;;;;;18.42;11.60;;;;;;;;;;6321524;28;20063;-73
2023/07/23 06:49:19;;;;;;;19.88;11.00;;;;;;;;;;6325773;28;20293;-77
2023/07/23 06:52:20;;;;;;;15.77;11.23;;;;;;;;;;6320789;27;20059;-76
2023/07/23 06:55:22;;;;;;;14.07;10.27;;;;;;;;;;6325244;28;20056;-72
2023/07/23 06:58:25;;;;;;;15.05;9.95;;;;;;;;;;6318901;27;20352;-72
2023/07/23 07:01:26;;;;;;;15.18;10.05;;;;;;;;;;6319834;28;20056;-72
2023/07/23 07:04:27;;;;;;;15.18;9.88;;;;;;;;;;6322263;27;20136;-72
2023/07/23 07:07:29;;;;;;;15.65;10.50;;;;;;;;;;6321637;28;20055;-73
2023/07/23 07:10:30;;;;;;;15.77;9.30;;;;;;;;;;6320824;28;20244;-72
2023/07/23 07:13:33;;;;;;;14.77;10.13;;;;;;;;;;6320159;28;20055;-70
2023/07/23 07:16:34;;;;;;;12.05;9.38;;;;;;;;;;6322541;28;20053;-70
2023/07/23 07:19:36;;;;;;;14.13;9.95;;;;;;;;;;6323561;28;20148;-71
2023/07/23 07:22:37;;;;;;;109.65;15.65;;;;;;;;;;6314694;27;21187;-81
2023/07/23 07:25:39;;;;;;;30.42;9.85;;;;;;;;;;6320324;28;20049;-79
2023/07/23 07:28:42;;;;;;;13.80;9.23;;;;;;;;;;6320838;28;20074;-79
2023/07/23 07:31:44;;;;;;;13.02;8.90;;;;;;;;;;6315814;28;20323;-79
2023/07/23 07:34:46;;;;;;;12.33;8.27;;;;;;;;;;6321256;28;20055;-76
2023/07/23 07:37:47;;;;;;;12.02;8.80;;;;;;;;;;6317934;28;20040;-76
2023/07/23 07:40:49;;;;;;;12.85;7.90;;;;;;;;;;6320328;28;20056;-76
2023/07/23 07:43:52;;;;;;;11.77;7.78;;;;;;;;;;6319137;28;20055;-76
2023/07/23 07:46:53;;;;;;;17.00;8.27;;;;;;;;;;6322668;28;20057;-78
2023/07/23 07:49:55;;;;;;;11.70;8.57;;;;;;;;;;6320370;27;20059;-76
2023/07/23 07:52:56;;;;;;;11.90;8.60;;;;;;;;;;6322070;28;20059;-77
2023/07/23 07:55:58;;;;;;;11.02;8.38;;;;;;;;;;6318695;28;20063;-77
2023/07/23 07:59:02;;;;;;;12.27;7.55;;;;;;;;;;6321513;28;20044;-78
2023/07/23 08:02:04;;;;;;;11.65;7.93;;;;;;;;;;6318642;28;20043;-80
2023/07/23 08:05:06;;;;;;;13.55;7.50;;;;;;;;;;6321841;28;20040;-78
2023/07/23 08:08:08;;;;;;;13.45;8.27;;;;;;;;;;6320738;28;20083;-77
2023/07/23 08:11:09;;;;;;;9.27;7.18;;;;;;;;;;6320009;28;20363;-80
2023/07/23 08:14:13;;;;;;;13.65;7.70;;;;;;;;;;6322926;28;20055;-82
2023/07/23 08:17:15;;;;;;;12.80;9.43;;;;;;;;;;6321507;28;20201;-81
2023/07/23 08:20:17;;;;;;;25.95;23.38;;;;;;;;;;6321946;28;20087;-78
2023/07/23 08:23:19;;;;;;;18.38;15.77;;;;;;;;;;6319207;28;20094;-78
2023/07/23 08:26:21;;;;;;;21.13;17.13;;;;;;;;;;6322825;28;20052;-83
2023/07/23 08:29:25;;;;;;;28.65;25.77;;;;;;;;;;6320219;28;20060;-85
2023/07/23 08:32:27;;;;;;;20.38;17.30;;;;;;;;;;6322667;28;20659;-79
2023/07/23 08:35:29;;;;;;;23.73;21.35;;;;;;;;;;6320932;28;20063;-77
2023/07/23 08:38:31;;;;;;;26.98;22.80;;;;;;;;;;6324903;28;20378;-77
2023/07/23 08:41:36;;;;;;;14.63;9.50;;;;;;;;;;6320143;28;20048;-79
2023/07/23 08:44:55;;;;;;;15.48;10.80;;;;;;;;;;6321726;28;20035;-77
2023/07/23 08:48:05;;;;;;;11.40;8.40;;;;;;;;;;6324378;28;20064;-76
2023/07/23 08:51:07;;;;;;;13.80;8.57;;;;;;;;;;6320765;28;20056;-75
2023/07/23 08:54:09;;;;;;;11.98;8.52;;;;;;;;;;6321213;28;20048;-76
2023/07/23 08:57:10;;;;;;;10.17;8.07;;;;;;;;;;6321616;28;20285;-76
2023/07/23 09:00:14;;;;;;;11.07;7.88;;;;;;;;;;6320236;28;20055;-77
2023/07/23 09:03:17;;;;;;;11.43;8.00;;;;;;;;;;6320814;28;20247;-82
2023/07/23 09:06:20;;;;;;;11.98;8.80;;;;;;;;;;6319523;28;20078;-83
2023/07/23 09:09:21;;;;;;;11.75;8.32;;;;;;;;;;6320239;28;20064;-82
2023/07/23 09:12:23;;;;;;;12.60;8.30;;;;;;;;;;6322891;28;20066;-81
2023/07/23 09:15:26;;;;;;;11.32;8.18;;;;;;;;;;6325598;28;20044;-81
2023/07/23 09:18:27;;;;;;;;;;;;;;;;;;6322815;28;20115;-81
2023/07/23 09:21:29;;;;;;;15.77;9.25;;;;;;;;;;6319344;28;19932;-80
2023/07/23 09:24:31;;;;;;;15.25;8.32;;;;;;;;;;6321523;28;20247;-80
2023/07/23 09:27:36;;;;;;;8.93;7.32;;;;;;;;;;6324150;28;20056;-80
2023/07/23 09:30:39;;;;;;;11.40;8.48;;;;;;;;;;6323331;28;20050;-79
2023/07/23 09:33:40;;;;;;;11.35;7.63;;;;;;;;;;6325558;28;20052;-80
2023/07/23 09:36:42;;;;;;;9.63;7.28;;;;;;;;;;6325073;28;21041;-80
2023/07/23 09:39:43;;;;;;;9.38;6.57;;;;;;;;;;6325888;28;20063;-82
2023/07/23 09:42:45;;;;;;;12.82;7.55;;;;;;;;;;6327070;28;20048;-81
2023/07/23 09:45:48;;;;;;;12.95;7.20;;;;;;;;;;6324691;28;20291;-87
2023/07/23 09:48:49;;;;;;;12.25;7.57;;;;;;;;;;6325665;28;20051;-82
2023/07/23 09:51:51;;;;;;;11.23;7.03;;;;;;;;;;6323840;28;20055;-81
2023/07/23 09:54:53;;;;;;;9.27;7.25;;;;;;;;;;6326716;28;20399;-82
2023/07/23 09:57:54;;;;;;;11.80;7.80;;;;;;;;;;6322540;28;20048;-84
2023/07/23 10:00:57;;;;;;;11.48;6.43;;;;;;;;;;6324868;28;20059;-85
2023/07/23 10:03:59;;;;;;;8.98;7.22;;;;;;;;;;6323926;28;20044;-84
2023/07/23 10:07:00;;;;;;;9.20;6.95;;;;;;;;;;6327205;28;20056;-84
2023/07/23 10:10:02;;;;;;;11.20;8.02;;;;;;;;;;6323420;28;20324;-85
2023/07/23 10:13:03;;;;;;;8.35;6.25;;;;;;;;;;6323195;28;20067;-83
2023/07/23 10:16:08;;;;;;;9.77;5.47;;;;;;;;;;6322526;28;20064;-82
2023/07/23 10:19:10;;;;;;;10.48;6.18;;;;;;;;;;6327008;28;20058;-82
2023/07/23 10:22:11;;;;;;;7.68;4.47;;;;;;;;;;6322578;28;20058;-81
2023/07/23 10:25:23;;;;;;;9.88;5.50;;;;;;;;;;6321464;28;20363;-82
2023/07/23 10:28:25;;;;;;;10.48;5.55;;;;;;;;;;6322954;28;20094;-81
2023/07/23 10:31:29;;;;;;;7.63;4.97;;;;;;;;;;6323176;28;20109;-81
2023/07/23 10:34:43;;;;;;;6.20;4.07;;;;;;;;;;6323175;28;20044;-81
2023/07/23 10:38:04;;;;;;;8.25;4.28;;;;;;;;;;6324395;28;20389;-81
2023/07/23 10:41:07;;;;;;;8.63;4.60;;;;;;;;;;6319462;28;20055;-81
2023/07/23 10:44:08;;;;;;;6.55;4.68;;;;;;;;;;6319321;28;20048;-80
2023/07/23 10:47:28;;;;;;;10.25;4.25;;;;;;;;;;6325719;28;20056;-81
2023/07/23 10:50:31;;;;;;;8.52;4.20;;;;;;;;;;6325581;28;20051;-82
2023/07/23 10:53:33;;;;;;;6.30;4.00;;;;;;;;;;6325350;28;20052;-82
2023/07/23 10:56:35;;;;;;;8.50;4.40;;;;;;;;;;6323431;28;20101;-82
2023/07/23 10:59:39;;;;;;;7.32;3.92;;;;;;;;;;6322986;28;20047;-81
2023/07/23 11:02:46;;;;;;;6.80;4.10;;;;;;;;;;6322978;27;20055;-81
2023/07/23 11:05:50;;;;;;;7.47;4.85;;;;;;;;;;6320008;28;20056;-83
2023/07/23 11:08:52;;;;;;;6.22;3.95;;;;;;;;;;6325488;27;20368;-82
2023/07/23 11:11:53;;;;;;;8.88;5.18;;;;;;;;;;6318380;28;20247;-82
2023/07/23 11:14:56;;;;;;;6.60;4.55;;;;;;;;;;6324499;28;20055;-82
2023/07/23 11:17:58;;;;;;;6.25;4.70;;;;;;;;;;6319575;28;20120;-82
2023/07/23 11:21:03;;;;;;;8.13;4.65;;;;;;;;;;6318841;28;20040;-83
2023/07/23 11:24:07;;;;;;;8.30;3.97;;;;;;;;;;6321970;28;20063;-83
2023/07/23 11:27:10;;;;;;;7.60;3.95;;;;;;;;;;6322442;28;20066;-84
2023/07/23 11:30:13;;;;;;;6.30;4.18;;;;;;;;;;6324320;28;20323;-84
2023/07/23 11:33:15;;;;;;;6.50;4.60;;;;;;;;;;6322534;28;20070;-83
2023/07/23 11:36:18;;;;;;;8.43;4.28;;;;;;;;;;6321977;28;20083;-82
2023/07/23 11:39:20;;;;;;;6.88;4.53;;;;;;;;;;6323396;28;20071;-82
2023/07/23 11:42:21;;;;;;;6.72;4.25;;;;;;;;;;6325346;28;20291;-78
2023/07/23 11:45:23;;;;;;;8.30;4.88;;;;;;;;;;6321358;28;20251;-81
2023/07/23 11:48:24;;;;;;;8.82;4.60;;;;;;;;;;6323939;28;20051;-82
2023/07/23 11:51:28;;;;;;;8.73;4.47;;;;;;;;;;6321982;28;20394;-80
2023/07/23 11:54:29;;;;;;;6.68;4.57;;;;;;;;;;6323326;28;20460;-82
2023/07/23 11:57:31;;;;;;;7.30;4.75;;;;;;;;;;6321073;28;20057;-82
2023/07/23 12:00:33;;;;;;;8.60;4.70;;;;;;;;;;6320156;28;20068;-84
2023/07/23 12:03:34;;;;;;;;;;;;;;;;;;6320214;28;20235;-80
2023/07/23 12:06:37;;;;;;;6.77;4.40;;;;;;;;;;6319309;28;19924;-80
2023/07/23 12:09:40;;;;;;;7.38;4.95;;;;;;;;;;6319119;28;20283;-83
2023/07/23 12:12:44;;;;;;;7.75;5.20;;;;;;;;;;6317863;28;20282;-79
2023/07/23 12:15:49;;;;;;;8.00;4.88;;;;;;;;;;6317093;28;20048;-79
2023/07/23 12:18:51;;;;;;;8.07;4.95;;;;;;;;;;6317040;28;20054;-79
2023/07/23 12:21:54;;;;;;;7.80;4.53;;;;;;;;;;6320811;28;20320;-81
2023/07/23 12:24:56;;;;;;;7.22;4.82;;;;;;;;;;6319579;28;20051;-82
2023/07/23 12:27:58;;;;;;;7.28;5.03;;;;;;;;;;6319015;28;20090;-80
2023/07/23 12:30:59;;;;;;;7.82;4.63;;;;;;;;;;6317456;28;20063;-81
2023/07/23 12:34:00;;;;;;;6.28;4.65;;;;;;;;;;6317773;28;20397;-80
2023/07/23 12:37:03;;;;;;;6.72;4.75;;;;;;;;;;6319638;28;20056;-81
2023/07/23 12:40:06;;;;;;;6.38;4.57;;;;;;;;;;6317377;28;20209;-85
2023/07/23 12:43:07;;;;;;;8.82;5.15;;;;;;;;;;6318518;28;20453;-80
2023/07/23 12:46:09;;;;;;;5.70;4.45;;;;;;;;;;6316264;28;20339;-81
2023/07/23 12:49:10;;;;;;;7.55;4.72;;;;;;;;;;6327661;28;20059;-79
2023/07/23 12:52:16;;;;;;;8.13;4.78;;;;;;;;;;6323785;28;20103;-80
2023/07/23 12:55:18;;;;;;;8.35;5.57;;;;;;;;;;6317765;28;20060;-79
2023/07/23 12:58:19;;;;;;;7.30;5.72;;;;;;;;;;6318421;28;20049;-83
2023/07/23 13:01:21;;;;;;;7.65;4.90;;;;;;;;;;6319086;28;20395;-79
2023/07/23 13:04:22;;;;;;;9.60;5.28;;;;;;;;;;6321948;28;20055;-79
2023/07/23 13:07:25;;;;;;;6.80;4.63;;;;;;;;;;6321730;28;20363;-83
2023/07/23 13:10:27;;;;;;;6.82;5.15;;;;;;;;;;6315541;28;20071;-80
2023/07/23 13:13:28;;;;;;;7.68;5.15;;;;;;;;;;6323309;28;20056;-79
2023/07/23 13:16:29;;;;;;;9.65;5.40;;;;;;;;;;6314393;28;20067;-80
2023/07/23 13:19:31;;;;;;;6.65;4.93;;;;;;;;;;6319726;28;20134;-85
2023/07/23 13:22:34;;;;;;;6.90;5.13;;;;;;;;;;6317818;28;20055;-82
2023/07/23 13:25:35;;;;;;;11.10;5.75;;;;;;;;;;6317373;28;20055;-82
2023/07/23 13:28:37;;;;;;;9.27;6.05;;;;;;;;;;6322108;28;20051;-82
2023/07/23 13:31:38;;;;;;;9.35;5.38;;;;;;;;;;6318161;28;20302;-82
2023/07/23 13:34:40;;;;;;;;;;;;;;;;;;6319617;28;20066;-89
2023/07/23 13:37:42;;;;;;;6.57;4.63;;;;;;;;;;6320547;28;19924;-88
2023/07/23 13:40:44;;;;;;;9.40;5.57;;;;;;;;;;6317936;28;20266;-87
2023/07/23 13:43:45;;;;;;;8.35;5.57;;;;;;;;;;6320946;28;20044;-87
2023/07/23 13:46:47;;;;;;;7.70;5.35;;;;;;;;;;6322252;28;20063;-89
2023/07/23 13:49:49;;;;;;;8.43;5.65;;;;;;;;;;6318566;28;20048;-89
2023/07/23 13:52:52;;;;;;;6.65;5.78;;;;;;;;;;6320046;28;20062;-90
2023/07/23 13:55:54;;;;;;;60.08;48.78;;;;;;;;;;6325201;27;20052;-91
2023/07/23 13:58:55;;;;;;;14.65;11.00;;;;;;;;;;6328917;28;20442;-90
2023/07/23 14:01:57;;;;;;;;;;;;;;;;;;6330318;28;20043;-90
2023/07/23 14:04:59;;;;;;;9.20;5.80;;;;;;;;;;6321604;28;19924;-88
2023/07/23 14:08:02;;;;;;;10.38;6.43;;;;;;;;;;6322260;28;20055;-88
2023/07/23 14:11:04;;;;;;;12.00;6.28;;;;;;;;;;6327408;28;20066;-88
2023/07/23 14:14:05;;;;;;;;;;;;;;;;;;6326061;28;20055;-88
2023/07/23 14:17:07;;;;;;;8.23;5.80;;;;;;;;;;6325148;28;19924;-88
2023/07/23 14:20:08;;;;;;;;;;;;;;;;;;6325085;28;20052;-88
2023/07/23 14:23:13;;;;;;;7.82;6.55;;;;;;;;;;6326586;28;19916;-90
2023/07/23 14:26:14;;;;;;;8.45;6.15;;;;;;;;;;6325847;28;20056;-89
2023/07/23 14:29:16;;;;;;;9.35;6.43;;;;;;;;;;6325401;28;20370;-88
2023/07/23 14:32:17;;;;;;;;;;;;;;;;;;6325227;28;20059;-89
2023/07/23 14:35:18;;;;;;;8.77;5.82;;;;;;;;;;6325057;28;19988;-90
2023/07/23 14:38:22;;;;;;;7.63;5.95;;;;;;;;;;6323293;28;20101;-90
2023/07/23 14:41:23;;;;;;;7.80;6.60;;;;;;;;;;6324873;28;20044;-86
2023/07/23 14:44:24;;;;;;;11.32;6.32;;;;;;;;;;6328969;28;20059;-73
2023/07/23 14:47:26;;;;;;;;;;;;;;;;;;6324408;28;20052;-85
2023/07/23 14:50:28;;;;;;;8.00;6.45;;;;;;;;;;6325126;27;19923;-87
2023/07/23 14:53:31;;;;;;;9.10;6.35;;;;;;;;;;6320824;28;20049;-78
2023/07/23 14:56:32;;;;;;;10.05;6.95;;;;;;;;;;6321194;28;20054;-87
2023/07/23 14:59:33;;;;;;;;;;;;;;;;;;6321899;28;20105;-78
2023/07/23 15:02:35;;;;;;;10.48;7.53;;;;;;;;;;6320582;28;20452;-86
2023/07/23 15:05:37;;;;;;;10.07;6.68;;;;;;;;;;6322805;28;20115;-86
2023/07/23 15:08:41;;;;;;;11.63;6.90;;;;;;;;;;6322856;27;20052;-86
2023/07/23 15:11:42;;;;;;;12.05;7.57;;;;;;;;;;6323577;28;20073;-86
2023/07/23 15:14:44;;;;;;;11.85;7.55;;;;;;;;;;6321051;28;20169;-85
2023/07/23 15:17:46;;;;;;;11.57;8.13;;;;;;;;;;6325303;28;20044;-85
2023/07/23 15:20:48;;;;;;;10.50;7.80;;;;;;;;;;6326441;28;20040;-85
2023/07/23 15:23:51;;;;;;;12.23;8.45;;;;;;;;;;6319365;28;20085;-87
2023/07/23 15:26:53;;;;;;;12.63;8.52;;;;;;;;;;6322016;28;20055;-86
2023/07/23 15:29:54;;;;;;;;;;;;;;;;;;6323841;28;20056;-87
2023/07/23 15:32:56;;;;;;;12.95;8.90;;;;;;;;;;6323350;28;19923;-83
2023/07/23 15:35:57;;;;;;;12.50;8.55;;;;;;;;;;6317713;28;20359;-84
2023/07/23 15:39:00;;;;;;;12.80;8.30;;;;;;;;;;6322257;28;20382;-81
2023/07/23 15:42:02;;;;;;;12.75;9.23;;;;;;;;;;6322442;28;20075;-83
2023/07/23 15:45:03;;;;;;;14.02;9.25;;;;;;;;;;6324320;28;20082;-82
2023/07/23 15:48:05;;;;;;;14.88;9.48;;;;;;;;;;6318935;28;20056;-82
2023/07/23 15:51:07;;;;;;;14.93;9.63;;;;;;;;;;6324296;27;20044;-82
2023/07/23 15:54:10;;;;;;;14.32;9.40;;;;;;;;;;6324580;28;20052;-84
2023/07/23 15:57:12;;;;;;;14.35;9.07;;;;;;;;;;6320607;28;20244;-83
2023/07/23 16:00:13;;;;;;;13.27;8.40;;;;;;;;;;6324005;27;20048;-84
2023/07/23 16:03:15;;;;;;;10.73;7.82;;;;;;;;;;6323314;28;20660;-84
2023/07/23 16:06:16;;;;;;;13.10;9.10;;;;;;;;;;6319941;28;20052;-83
2023/07/23 16:09:19;;;;;;;13.65;8.15;;;;;;;;;;6321947;28;20059;-83
2023/07/23 16:12:21;;;;;;;12.35;8.25;;;;;;;;;;6324688;28;20066;-84
2023/07/23 16:15:23;;;;;;;12.40;8.07;;;;;;;;;;6322811;28;20109;-82
2023/07/23 16:18:24;;;;;;;;;;;;;;;;;;6321828;28;20050;-81
2023/07/23 16:21:26;;;;;;;10.02;7.28;;;;;;;;;;6320494;28;20184;-81
2023/07/23 16:24:29;;;;;;;12.13;8.35;;;;;;;;;;6322810;28;20072;-81
2023/07/23 16:27:30;;;;;;;13.82;8.75;;;;;;;;;;6324103;28;20081;-81
2023/07/23 16:30:32;;;;;;;14.47;8.47;;;;;;;;;;6320389;28;20060;-82
2023/07/23 16:33:34;;;;;;;15.60;9.18;;;;;;;;;;6320341;28;20346;-82
2023/07/23 16:36:35;;;;;;;12.18;8.18;;;;;;;;;;6322805;28;20056;-83
2023/07/23 16:39:38;;;;;;;10.95;8.25;;;;;;;;;;6320389;28;20051;-82
2023/07/23 16:42:41;;;;;;;13.75;8.25;;;;;;;;;;6320514;28;20043;-81
2023/07/23 16:45:42;;;;;;;13.80;8.25;;;;;;;;;;6323384;28;20067;-82
2023/07/23 16:48:44;;;;;;;13.83;8.07;;;;;;;;;;6321415;28;20356;-81
2023/07/23 16:51:46;;;;;;;14.10;8.05;;;;;;;;;;6320384;28;20052;-81
2023/07/23 16:54:48;;;;;;;14.70;7.78;;;;;;;;;;6321208;28;20044;-83
2023/07/23 16:57:51;;;;;;;15.70;9.35;;;;;;;;;;6322576;28;20056;-84
2023/07/23 17:00:52;;;;;;;12.98;8.38;;;;;;;;;;6323416;28;20132;-82
2023/07/23 17:03:54;;;;;;;13.07;8.37;;;;;;;;;;6324081;28;20063;-84
2023/07/23 17:06:55;;;;;;;13.02;8.38;;;;;;;;;;6318756;28;20044;-83
2023/07/23 17:09:58;;;;;;;13.48;8.48;;;;;;;;;;6320656;28;20040;-82
2023/07/23 17:12:59;;;;;;;12.30;8.60;;;;;;;;;;6320991;28;20100;-82
2023/07/23 17:16:01;;;;;;;12.93;8.68;;;;;;;;;;6321658;28;20246;-82
2023/07/23 17:19:06;;;;;;;13.80;8.45;;;;;;;;;;6318070;28;20052;-83
2023/07/23 17:22:08;;;;;;;18.55;9.57;;;;;;;;;;6320828;28;20044;-82
2023/07/23 17:25:11;;;;;;;13.57;8.85;;;;;;;;;;6319501;28;20347;-85
2023/07/23 17:28:13;;;;;;;12.93;8.73;;;;;;;;;;6322237;28;20076;-82
2023/07/23 17:31:14;;;;;;;15.18;8.60;;;;;;;;;;6321061;28;20122;-82
2023/07/23 17:34:15;;;;;;;15.32;9.25;;;;;;;;;;6324901;28;20255;-82
2023/07/23 17:37:18;;;;;;;13.73;8.20;;;;;;;;;;6327600;28;20060;-83
2023/07/23 17:40:20;;;;;;;14.35;8.35;;;;;;;;;;6324671;28;20048;-83
2023/07/23 17:43:22;;;;;;;14.00;8.85;;;;;;;;;;6325635;28;20062;-83
2023/07/23 17:46:24;;;;;;;14.23;8.47;;;;;;;;;;6325827;28;20058;-81
2023/07/23 17:49:25;;;;;;;14.60;8.40;;;;;;;;;;6327825;28;20067;-84
2023/07/23 17:52:27;;;;;;;14.45;8.65;;;;;;;;;;6329749;28;20062;-80
2023/07/23 17:55:30;;;;;;;12.38;8.10;;;;;;;;;;6325071;28;20153;-81
2023/07/23 17:58:31;;;;;;;;;;;;;;;;;;6329188;28;20053;-81
2023/07/23 18:01:33;;;;;;;12.27;7.75;;;;;;;;;;6324507;28;19924;-83